Time;durP1;ratioP1;P1;durP2;ratioP2;P2;SDS_P1;SDS_P2;PMS_P1;PMS_P2;Temp;Humidity;BMP_temperature;BMP_pressure;BME280_temperature;BME280_humidity;BME280_pressure;Samples;Min_cycle;Max_cycle;Signal;HPM_P1;HPM_P2
2022/12/03 00:01:24;;;;;;;28.30;19.15;;;3.10;99.90;;;;;;5091691;28;20098;-65
2022/12/03 00:03:50;;;;;;;32.58;19.80;;;3.10;99.90;;;;;;5090959;28;20042;-65
2022/12/03 00:06:16;;;;;;;33.25;20.05;;;3.10;99.90;;;;;;5085836;28;20039;-66
2022/12/03 00:08:42;;;;;;;30.55;19.67;;;3.10;99.90;;;;;;5094827;28;20040;-65
2022/12/03 00:11:07;;;;;;;30.02;20.13;;;3.10;99.90;;;;;;5087252;28;20379;-65
2022/12/03 00:13:33;;;;;;;30.67;19.92;;;3.10;99.90;;;;;;5088005;28;20050;-65
2022/12/03 00:15:59;;;;;;;30.65;19.15;;;3.10;99.90;;;;;;5091312;28;20114;-65
2022/12/03 00:18:24;;;;;;;31.05;19.55;;;3.10;99.90;;;;;;5085944;28;20089;-65
2022/12/03 00:20:50;;;;;;;32.70;20.10;;;3.10;99.90;;;;;;5089870;28;20040;-65
2022/12/03 00:23:16;;;;;;;32.72;20.83;;;3.10;99.90;;;;;;5088528;28;20197;-65
2022/12/03 00:25:42;;;;;;;33.55;20.23;;;3.10;99.90;;;;;;5085428;28;20467;-65
2022/12/03 00:28:07;;;;;;;31.40;20.10;;;3.10;99.90;;;;;;5088211;28;20037;-65
2022/12/03 00:30:33;;;;;;;33.28;20.13;;;3.10;99.90;;;;;;5090381;28;20028;-65
2022/12/03 00:32:59;;;;;;;33.85;20.73;;;3.10;99.90;;;;;;5088710;28;20044;-65
2022/12/03 00:35:24;;;;;;;33.13;21.10;;;3.10;99.90;;;;;;5094362;28;20814;-65
2022/12/03 00:37:50;;;;;;;32.58;20.77;;;3.20;99.90;;;;;;5083930;28;20441;-65
2022/12/03 00:40:16;;;;;;;33.75;21.00;;;3.10;99.90;;;;;;5091719;28;20030;-65
2022/12/03 00:42:42;;;;;;;32.15;21.42;;;3.10;99.90;;;;;;5067997;28;20048;-65
2022/12/03 00:45:08;;;;;;;34.50;20.65;;;3.10;99.90;;;;;;5095501;28;20132;-65
2022/12/03 00:47:33;;;;;;;34.28;21.02;;;3.10;99.90;;;;;;5066720;28;20044;-65
2022/12/03 00:49:59;;;;;;;35.38;22.25;;;3.10;99.90;;;;;;5093216;28;20376;-65
2022/12/03 00:52:25;;;;;;;35.20;21.85;;;3.10;99.90;;;;;;5088508;28;20098;-65
2022/12/03 00:54:50;;;;;;;32.80;20.67;;;3.10;99.90;;;;;;5092002;28;20032;-65
2022/12/03 00:57:16;;;;;;;34.33;20.95;;;3.10;99.90;;;;;;5086412;28;20046;-66
2022/12/03 00:59:42;;;;;;;32.40;19.83;;;3.10;99.90;;;;;;5090976;28;20089;-65
2022/12/03 01:02:08;;;;;;;36.58;22.23;;;3.10;99.90;;;;;;5086778;28;20538;-65
2022/12/03 01:04:33;;;;;;;32.80;20.42;;;3.10;99.90;;;;;;5089313;28;20471;-65
2022/12/03 01:07:00;;;;;;;36.13;21.83;;;3.10;99.90;;;;;;5070938;28;20122;-65
2022/12/03 01:09:26;;;;;;;35.70;20.80;;;3.10;99.90;;;;;;5087343;28;20048;-65
2022/12/03 01:11:51;;;;;;;34.25;19.92;;;3.10;99.90;;;;;;5089437;28;20653;-65
2022/12/03 01:14:18;;;;;;;29.85;19.95;;;3.10;99.90;;;;;;5084444;28;20512;-65
2022/12/03 01:16:45;;;;;;;33.05;20.75;;;3.10;99.90;;;;;;5089203;28;20102;-64
2022/12/03 01:19:14;;;;;;;31.15;20.33;;;3.20;99.90;;;;;;5088159;28;20047;-65
2022/12/03 01:21:45;;;;;;;28.65;19.65;;;3.20;99.90;;;;;;5088674;28;20032;-65
2022/12/03 01:24:12;;;;;;;28.98;19.80;;;3.20;99.90;;;;;;5083349;28;20036;-64
2022/12/03 01:26:38;;;;;;;32.63;20.80;;;3.20;99.90;;;;;;5090499;28;20415;-65
2022/12/03 01:29:04;;;;;;;30.20;19.55;;;3.20;99.90;;;;;;5082270;28;20028;-64
2022/12/03 01:34:14;;;;;;;32.00;20.02;;;3.20;99.90;;;;;;5086548;28;20045;-64
2022/12/03 01:36:40;;;;;;;31.13;20.65;;;3.20;99.90;;;;;;5067918;28;20048;-64
2022/12/03 01:39:05;;;;;;;30.55;19.95;;;3.20;99.90;;;;;;5065394;28;20051;-64
2022/12/03 01:41:32;;;;;;;28.23;19.48;;;3.20;99.90;;;;;;5087685;28;20491;-64
2022/12/03 01:44:03;;;;;;;31.23;19.75;;;3.20;99.90;;;;;;5085436;28;20111;-64
2022/12/03 01:46:37;;;;;;;28.80;19.33;;;3.30;99.90;;;;;;5071121;28;20078;-64
2022/12/03 01:49:04;;;;;;;28.08;19.73;;;3.20;99.90;;;;;;5083512;28;20051;-64
2022/12/03 01:51:30;;;;;;;27.67;18.42;;;3.20;99.90;;;;;;5090640;28;20055;-64
2022/12/03 01:53:56;;;;;;;28.40;18.58;;;3.30;99.90;;;;;;5087497;28;20038;-64
2022/12/03 01:56:23;;;;;;;24.70;17.38;;;3.30;99.90;;;;;;5088479;28;20109;-64
2022/12/03 01:58:48;;;;;;;26.85;18.17;;;3.30;99.90;;;;;;5085096;28;20036;-64
2022/12/03 02:01:16;;;;;;;28.88;19.73;;;3.30;99.90;;;;;;5085820;28;20058;-64
2022/12/03 02:03:43;;;;;;;25.88;18.02;;;3.30;99.90;;;;;;5080067;28;20124;-63
2022/12/03 02:06:16;;;;;;;28.60;18.52;;;3.40;99.90;;;;;;5091860;28;20098;-65
2022/12/03 02:08:43;;;;;;;27.85;19.90;;;3.30;99.90;;;;;;5063633;28;20040;-64
2022/12/03 02:11:31;;;;;;;25.23;17.67;;;3.40;99.90;;;;;;5087244;28;20032;-64
2022/12/03 02:14:09;;;;;;;27.10;18.58;;;3.40;99.90;;;;;;5084942;28;20124;-64
2022/12/03 02:16:36;;;;;;;28.42;18.35;;;3.40;99.90;;;;;;5090538;28;20126;-64
2022/12/03 02:19:07;;;;;;;28.92;19.58;;;3.40;99.90;;;;;;5085586;28;20092;-64
2022/12/03 02:21:57;;;;;;;25.55;18.65;;;3.30;99.90;;;;;;5086997;28;20043;-64
2022/12/03 02:24:41;;;;;;;23.70;17.58;;;3.30;99.90;;;;;;5085117;28;20417;-64
2022/12/03 02:27:06;;;;;;;26.00;19.38;;;3.30;99.90;;;;;;5064659;28;20123;-64
2022/12/03 02:29:32;;;;;;;26.42;19.08;;;3.30;99.90;;;;;;5087955;28;20244;-64
2022/12/03 02:31:58;;;;;;;26.17;17.92;;;3.30;99.90;;;;;;5090974;28;20642;-64
2022/12/03 02:34:33;;;;;;;25.85;18.50;;;3.30;99.90;;;;;;5084534;28;20492;-64
2022/12/03 02:36:59;;;;;;;24.08;17.00;;;3.30;99.90;;;;;;5089209;28;20056;-65
2022/12/03 02:39:25;;;;;;;28.15;20.45;;;3.30;99.90;;;;;;5088598;28;20173;-64
2022/12/03 02:44:37;;;;;;;26.48;17.65;;;3.40;99.90;;;;;;5063978;28;20043;-64
2022/12/03 02:47:03;;;;;;;28.67;19.38;;;3.30;99.90;;;;;;5068387;28;20044;-64
2022/12/03 02:49:29;;;;;;;28.45;19.55;;;3.30;99.90;;;;;;5067231;28;20051;-64
2022/12/03 02:51:54;;;;;;;28.42;19.10;;;3.30;99.90;;;;;;5083412;28;20081;-64
2022/12/03 02:54:20;;;;;;;29.15;20.40;;;3.30;99.90;;;;;;5086416;28;20115;-65
2022/12/03 02:56:46;;;;;;;26.30;17.60;;;3.30;99.90;;;;;;5065989;28;20116;-64
2022/12/03 02:59:11;;;;;;;26.25;17.95;;;3.30;99.90;;;;;;5087988;28;20036;-64
2022/12/03 03:01:37;;;;;;;27.95;18.35;;;3.20;99.90;;;;;;5085235;28;20047;-64
2022/12/03 03:04:03;;;;;;;25.08;17.48;;;3.30;99.90;;;;;;5086534;28;20032;-64
2022/12/03 03:06:29;;;;;;;27.60;18.98;;;3.20;99.90;;;;;;5087177;28;20028;-64
2022/12/03 03:08:56;;;;;;;28.40;19.05;;;3.20;99.90;;;;;;5085696;28;20036;-64
2022/12/03 03:11:23;;;;;;;27.73;18.67;;;3.20;99.90;;;;;;5086990;28;20132;-64
2022/12/03 03:13:48;;;;;;;26.10;18.50;;;3.20;99.90;;;;;;5083879;28;20028;-64
2022/12/03 03:16:14;;;;;;;28.20;18.80;;;3.20;99.90;;;;;;5085630;28;20102;-65
2022/12/03 03:18:40;;;;;;;23.92;17.45;;;3.20;99.90;;;;;;5086961;28;20598;-64
2022/12/03 03:21:06;;;;;;;26.83;18.30;;;3.20;99.90;;;;;;5086189;28;20481;-64
2022/12/03 03:23:32;;;;;;;25.08;18.15;;;3.20;99.90;;;;;;5086816;28;20055;-64
2022/12/03 03:26:08;;;;;;;25.85;18.73;;;3.20;99.90;;;;;;5080177;28;20043;-65
2022/12/03 03:28:36;;;;;;;26.35;18.85;;;3.20;99.90;;;;;;5081707;28;20055;-65
2022/12/03 03:31:05;;;;;;;28.02;19.10;;;3.20;99.90;;;;;;5088103;28;20043;-64
2022/12/03 03:33:31;;;;;;;25.90;18.55;;;3.20;99.90;;;;;;5084592;28;20760;-64
2022/12/03 03:35:59;;;;;;;23.67;17.17;;;3.20;99.90;;;;;;5080971;28;20498;-64
2022/12/03 03:38:27;;;;;;;23.98;17.73;;;3.10;99.90;;;;;;5086391;28;20130;-64
2022/12/03 03:40:53;;;;;;;26.95;19.05;;;3.10;99.90;;;;;;5088358;28;20154;-64
2022/12/03 03:43:21;;;;;;;25.73;18.52;;;3.10;99.90;;;;;;5063222;28;20044;-64
2022/12/03 03:45:47;;;;;;;24.70;17.42;;;3.10;99.90;;;;;;5066297;28;20064;-64
2022/12/03 03:48:13;;;;;;;23.25;17.45;;;3.10;99.90;;;;;;5085039;28;20047;-65
2022/12/03 03:50:40;;;;;;;24.10;17.60;;;3.10;99.90;;;;;;5086762;28;20044;-65
2022/12/03 03:53:06;;;;;;;25.58;17.95;;;3.10;99.90;;;;;;5083894;28;20379;-64
2022/12/03 03:55:33;;;;;;;24.08;17.25;;;3.10;99.90;;;;;;5081218;28;20062;-64
2022/12/03 03:57:59;;;;;;;23.90;17.80;;;3.10;99.90;;;;;;5078071;28;20062;-64
2022/12/03 04:00:25;;;;;;;26.13;18.27;;;3.10;99.90;;;;;;5080695;28;20107;-64
2022/12/03 04:02:52;;;;;;;25.83;19.20;;;3.10;99.90;;;;;;5085877;28;20123;-64
2022/12/03 04:05:21;;;;;;;27.38;18.42;;;3.10;99.90;;;;;;5081195;28;20460;-65
2022/12/03 04:07:47;;;;;;;26.60;19.02;;;3.10;99.90;;;;;;5083375;28;20159;-64
2022/12/03 04:12:54;;;;;;;27.25;19.58;;;3.10;99.90;;;;;;5089270;28;20264;-65
2022/12/03 04:13:03;;;;;;;26.00;17.70;;;3.10;99.90;;;;;;5080860;28;20189;-65
2022/12/03 04:15:29;;;;;;;27.92;18.58;;;3.10;99.90;;;;;;5091019;28;20043;-65
2022/12/03 04:20:39;;;;;;;28.13;20.67;;;3.10;99.90;;;;;;5088726;28;20364;-65
2022/12/03 04:23:05;;;;;;;27.13;18.58;;;3.10;99.90;;;;;;5089210;28;20043;-65
2022/12/03 04:35:41;;;;;;;25.77;18.52;;;3.10;99.90;;;;;;5090456;28;20089;-64
2022/12/03 04:36:30;;;;;;;27.02;19.52;;;3.00;99.90;;;;;;5090391;28;20047;-64
2022/12/03 04:38:56;;;;;;;27.85;19.20;;;3.00;99.90;;;;;;5092091;28;20032;-64
2022/12/03 04:41:21;;;;;;;26.65;18.45;;;3.00;99.90;;;;;;5091831;28;20056;-64
2022/12/03 04:46:31;;;;;;;28.60;19.35;;;3.00;99.90;;;;;;5084157;28;20384;-64
2022/12/03 04:48:57;;;;;;;26.63;18.23;;;3.10;99.90;;;;;;5071213;28;20047;-64
2022/12/03 04:51:23;;;;;;;26.55;18.10;;;3.00;99.90;;;;;;5092619;28;20027;-64
2022/12/03 04:53:48;;;;;;;27.63;19.90;;;2.90;99.90;;;;;;5087257;28;20107;-65
2022/12/03 04:56:14;;;;;;;27.25;17.92;;;3.00;99.90;;;;;;5090084;28;20371;-64
2022/12/03 04:58:39;;;;;;;25.42;17.50;;;2.90;99.90;;;;;;5094998;28;20101;-65
2022/12/03 05:01:05;;;;;;;26.92;19.48;;;2.90;99.90;;;;;;5087495;28;20042;-64
2022/12/03 05:03:31;;;;;;;26.65;18.40;;;2.90;99.90;;;;;;5092646;28;20081;-64
2022/12/03 05:05:56;;;;;;;25.30;18.65;;;2.90;99.90;;;;;;5088409;28;20464;-64
2022/12/03 05:08:22;;;;;;;23.65;17.60;;;2.80;99.90;;;;;;5089046;28;20048;-64
2022/12/03 05:10:48;;;;;;;27.02;19.02;;;2.90;99.90;;;;;;5083911;28;20074;-64
2022/12/03 05:13:13;;;;;;;24.25;17.08;;;2.90;99.90;;;;;;5097423;28;20053;-64
2022/12/03 05:15:39;;;;;;;24.38;17.38;;;2.90;99.90;;;;;;5089404;28;20036;-64
2022/12/03 05:18:05;;;;;;;24.55;18.02;;;2.90;99.90;;;;;;5069247;28;20043;-64
2022/12/03 05:20:42;;;;;;;25.90;17.50;;;2.80;99.90;;;;;;5087335;28;20491;-64
2022/12/03 05:23:12;;;;;;;27.38;17.67;;;2.90;99.90;;;;;;5089741;28;20119;-64
2022/12/03 05:25:39;;;;;;;26.70;17.92;;;2.90;99.90;;;;;;5085263;28;20479;-64
2022/12/03 05:28:05;;;;;;;26.10;17.67;;;2.80;99.90;;;;;;5090923;28;20455;-64
2022/12/03 05:30:31;;;;;;;26.58;17.98;;;2.80;99.90;;;;;;5050830;28;20127;-64
2022/12/03 05:32:57;;;;;;;25.15;17.13;;;2.80;99.90;;;;;;5087436;28;20119;-64
2022/12/03 05:35:23;;;;;;;26.73;17.73;;;2.90;99.90;;;;;;5083628;28;20491;-64
2022/12/03 05:37:49;;;;;;;27.98;17.52;;;2.80;99.90;;;;;;5090441;28;20032;-64
2022/12/03 05:40:15;;;;;;;24.67;17.58;;;2.80;99.90;;;;;;5086311;28;20097;-64
2022/12/03 05:42:53;;;;;;;26.02;17.48;;;2.80;99.90;;;;;;5090646;28;20166;-64
2022/12/03 05:45:20;;;;;;;27.67;18.63;;;2.80;99.90;;;;;;5087545;28;20028;-64
2022/12/03 05:47:46;;;;;;;26.88;18.25;;;2.80;99.90;;;;;;5080200;28;20199;-64
2022/12/03 05:50:12;;;;;;;22.70;17.15;;;2.80;99.90;;;;;;5088194;28;20131;-64
2022/12/03 05:52:37;;;;;;;24.45;16.48;;;2.80;99.90;;;;;;5091048;28;20048;-64
2022/12/03 05:55:03;;;;;;;25.25;17.23;;;2.80;99.90;;;;;;5087373;28;20552;-64
2022/12/03 05:57:29;;;;;;;24.63;17.02;;;2.80;99.90;;;;;;5084274;28;20123;-64
2022/12/03 05:59:55;;;;;;;25.27;18.02;;;2.80;99.90;;;;;;5087977;28;20158;-64
2022/12/03 06:02:20;;;;;;;25.02;17.60;;;2.80;99.90;;;;;;5084961;28;20028;-64
2022/12/03 06:04:46;;;;;;;25.67;17.83;;;2.80;99.90;;;;;;5090852;28;20564;-64
2022/12/03 06:07:12;;;;;;;26.10;17.80;;;2.80;99.90;;;;;;5087387;28;20105;-64
2022/12/03 06:09:37;;;;;;;26.73;18.08;;;2.80;99.90;;;;;;5088238;28;20107;-64
2022/12/03 06:12:05;;;;;;;26.73;17.98;;;2.80;99.90;;;;;;5087863;28;20446;-64
2022/12/03 06:14:33;;;;;;;25.00;18.33;;;2.80;99.90;;;;;;5088468;28;20036;-64
2022/12/03 06:16:59;;;;;;;26.13;18.63;;;2.80;99.90;;;;;;5084189;28;20097;-63
2022/12/03 06:19:24;;;;;;;28.67;18.95;;;2.80;99.90;;;;;;5091243;28;22098;-64
2022/12/03 06:21:50;;;;;;;24.70;17.20;;;2.80;99.90;;;;;;5088037;28;20036;-64
2022/12/03 06:24:16;;;;;;;24.58;17.88;;;2.80;99.90;;;;;;5089800;28;20040;-64
2022/12/03 06:26:41;;;;;;;22.65;17.55;;;2.80;99.90;;;;;;5087794;28;20464;-64
2022/12/03 06:29:07;;;;;;;24.48;16.25;;;2.80;99.90;;;;;;5073125;28;20043;-64
2022/12/03 06:31:33;;;;;;;25.20;16.67;;;2.80;99.90;;;;;;5088958;28;20036;-64
2022/12/03 06:33:58;;;;;;;23.42;16.75;;;2.80;99.90;;;;;;5091287;28;20068;-64
2022/12/03 06:36:26;;;;;;;23.42;16.15;;;2.80;99.90;;;;;;5085974;28;20036;-64
2022/12/03 06:38:52;;;;;;;24.10;14.85;;;2.80;99.90;;;;;;5081901;28;20048;-64
2022/12/03 06:41:18;;;;;;;24.35;17.42;;;2.80;99.90;;;;;;5086951;28;20048;-64
2022/12/03 06:43:50;;;;;;;24.23;15.95;;;2.80;99.90;;;;;;5088444;28;20039;-65
2022/12/03 06:46:23;;;;;;;28.45;16.88;;;2.70;99.90;;;;;;5086329;28;20039;-65
2022/12/03 06:48:56;;;;;;;26.92;17.73;;;2.80;99.90;;;;;;5085873;28;20098;-65
2022/12/03 06:51:28;;;;;;;25.17;16.60;;;2.70;99.90;;;;;;5070585;28;20047;-65
2022/12/03 06:53:56;;;;;;;25.85;17.40;;;2.70;99.90;;;;;;5087261;28;20044;-65
2022/12/03 06:56:22;;;;;;;25.55;16.98;;;2.80;99.90;;;;;;5082998;28;20076;-65
2022/12/03 06:58:48;;;;;;;24.45;17.23;;;2.70;99.90;;;;;;5087289;28;20042;-65
2022/12/03 07:01:13;;;;;;;22.88;15.77;;;2.70;99.90;;;;;;5070635;28;20051;-65
2022/12/03 07:03:39;;;;;;;24.45;16.52;;;2.70;99.90;;;;;;5084954;28;20134;-65
2022/12/03 07:06:05;;;;;;;26.27;17.33;;;2.70;99.90;;;;;;5087901;28;20036;-65
2022/12/03 07:08:30;;;;;;;25.27;17.17;;;2.70;99.90;;;;;;5089701;28;20119;-65
2022/12/03 07:10:56;;;;;;;24.17;17.00;;;2.60;99.90;;;;;;5085584;28;20126;-64
2022/12/03 07:13:22;;;;;;;23.50;16.92;;;2.70;99.90;;;;;;5087322;28;20036;-65
2022/12/03 07:15:47;;;;;;;26.27;17.88;;;2.70;99.90;;;;;;5085812;28;20497;-65
2022/12/03 07:18:13;;;;;;;25.23;16.48;;;2.60;99.90;;;;;;5089420;28;20054;-69
2022/12/03 07:20:39;;;;;;;28.10;18.27;;;2.60;99.90;;;;;;5087309;28;20050;-64
2022/12/03 07:23:04;;;;;;;29.08;18.27;;;2.60;99.90;;;;;;5088004;28;20508;-65
2022/12/03 07:25:30;;;;;;;27.45;18.20;;;2.60;99.90;;;;;;5069132;28;20142;-65
2022/12/03 07:27:56;;;;;;;28.02;17.75;;;2.60;99.90;;;;;;5074074;28;20484;-66
2022/12/03 07:30:23;;;;;;;31.25;19.10;;;2.60;99.90;;;;;;5085433;28;20182;-65
2022/12/03 07:32:49;;;;;;;27.35;18.65;;;2.60;99.90;;;;;;5073265;28;20073;-65
2022/12/03 07:35:15;;;;;;;28.60;19.10;;;2.60;99.90;;;;;;5064597;28;20031;-64
2022/12/03 07:37:41;;;;;;;30.52;19.35;;;2.60;99.90;;;;;;5093056;28;20181;-65
2022/12/03 07:40:07;;;;;;;27.35;19.17;;;2.60;99.90;;;;;;5088140;28;20524;-65
2022/12/03 07:42:33;;;;;;;31.52;20.40;;;2.50;99.90;;;;;;5068827;28;20112;-65
2022/12/03 07:44:58;;;;;;;30.45;18.73;;;2.50;99.90;;;;;;5063427;28;20033;-65
2022/12/03 07:47:24;;;;;;;31.50;19.52;;;2.50;99.90;;;;;;5089736;28;20044;-65
2022/12/03 07:49:50;;;;;;;33.17;20.90;;;2.60;99.90;;;;;;5091772;28;20054;-65
2022/12/03 07:52:15;;;;;;;29.90;20.20;;;2.50;99.90;;;;;;5090493;28;20433;-65
2022/12/03 07:54:41;;;;;;;29.13;20.30;;;2.50;99.90;;;;;;5086222;28;20040;-65
2022/12/03 07:57:07;;;;;;;29.90;19.98;;;2.50;99.90;;;;;;5068912;28;20480;-64
2022/12/03 07:59:33;;;;;;;32.13;21.00;;;2.50;99.90;;;;;;5082943;28;20032;-64
2022/12/03 08:01:58;;;;;;;32.22;20.70;;;2.40;99.90;;;;;;5082193;28;20028;-65
2022/12/03 08:04:24;;;;;;;32.75;21.02;;;2.50;99.90;;;;;;5088021;28;20474;-65
2022/12/03 08:06:50;;;;;;;34.13;21.35;;;2.40;99.90;;;;;;5083283;28;20360;-65
2022/12/03 08:09:15;;;;;;;31.70;21.10;;;2.50;99.90;;;;;;5088700;28;20044;-64
2022/12/03 08:11:43;;;;;;;36.35;23.15;;;2.50;99.90;;;;;;5088730;28;20030;-65
2022/12/03 08:14:14;;;;;;;34.72;23.40;;;2.40;99.90;;;;;;5092113;28;20535;-65
2022/12/03 08:16:42;;;;;;;32.97;22.25;;;2.40;99.90;;;;;;5082916;28;20032;-65
2022/12/03 08:19:16;;;;;;;39.38;24.27;;;2.50;99.90;;;;;;5089049;28;20035;-65
2022/12/03 08:21:42;;;;;;;37.85;23.73;;;2.40;99.90;;;;;;5069698;28;20036;-65
2022/12/03 08:24:17;;;;;;;36.03;24.40;;;2.40;99.90;;;;;;5089523;28;20036;-65
2022/12/03 08:26:45;;;;;;;37.50;24.55;;;2.40;99.90;;;;;;5081153;28;20043;-65
2022/12/03 08:29:16;;;;;;;39.70;24.42;;;2.40;99.90;;;;;;5093771;28;20126;-65
2022/12/03 08:31:51;;;;;;;37.58;24.98;;;2.40;99.90;;;;;;5050461;28;20139;-65
2022/12/03 08:34:19;;;;;;;38.60;24.98;;;2.40;99.90;;;;;;5095434;28;20128;-64
2022/12/03 08:36:47;;;;;;;41.40;25.95;;;2.40;99.90;;;;;;5087739;28;20032;-65
2022/12/03 08:39:15;;;;;;;45.83;28.30;;;2.40;99.90;;;;;;5090524;28;20583;-65
2022/12/03 08:44:34;;;;;;;41.08;27.00;;;2.30;99.90;;;;;;5089034;28;20067;-65
2022/12/03 08:47:09;;;;;;;45.58;27.13;;;2.30;99.90;;;;;;5085750;28;20039;-65
2022/12/03 08:49:35;;;;;;;42.97;27.73;;;2.30;99.90;;;;;;5071097;28;20135;-65
2022/12/03 08:52:15;;;;;;;43.78;27.55;;;2.20;99.90;;;;;;5088649;28;20040;-65
2022/12/03 08:54:42;;;;;;;43.17;27.65;;;2.20;99.90;;;;;;5089654;28;20104;-65
2022/12/03 08:57:26;;;;;;;42.40;26.95;;;2.20;99.90;;;;;;5086083;28;20150;-64
2022/12/03 09:00:08;;;;;;;42.80;26.90;;;2.30;99.90;;;;;;5092547;28;20107;-64
2022/12/03 09:02:34;;;;;;;44.47;26.95;;;2.20;99.90;;;;;;5090096;28;20511;-65
2022/12/03 09:05:15;;;;;;;42.10;27.15;;;2.20;99.90;;;;;;5091402;28;20032;-64
2022/12/03 09:07:41;;;;;;;42.78;26.70;;;2.30;99.90;;;;;;5087014;28;20039;-64
2022/12/03 09:10:07;;;;;;;43.00;24.77;;;2.20;99.90;;;;;;5093914;28;20047;-66
2022/12/03 09:12:33;;;;;;;44.63;27.02;;;2.20;99.90;;;;;;5087406;28;20032;-65
2022/12/03 09:14:58;;;;;;;46.72;27.30;;;2.20;99.90;;;;;;5072853;28;20126;-64
2022/12/03 09:17:24;;;;;;;45.30;28.05;;;2.20;99.90;;;;;;5087785;28;20119;-64
2022/12/03 09:19:50;;;;;;;46.58;26.50;;;2.10;99.90;;;;;;5087253;28;20062;-64
2022/12/03 09:22:16;;;;;;;46.40;28.27;;;2.20;99.90;;;;;;5087469;28;20518;-64
2022/12/03 09:24:42;;;;;;;46.60;28.30;;;2.20;99.90;;;;;;5089369;28;20039;-64
2022/12/03 09:27:07;;;;;;;45.60;28.95;;;2.20;99.90;;;;;;5089221;28;20044;-64
2022/12/03 09:29:33;;;;;;;43.92;26.50;;;2.20;99.90;;;;;;5089675;28;20319;-64
2022/12/03 09:31:59;;;;;;;48.67;27.58;;;2.20;99.90;;;;;;5064579;28;20035;-64
2022/12/03 09:34:25;;;;;;;43.90;28.60;;;2.20;99.90;;;;;;5088300;28;20039;-65
2022/12/03 09:36:50;;;;;;;43.88;27.20;;;2.20;99.90;;;;;;5089687;28;20048;-64
2022/12/03 09:39:16;;;;;;;43.63;28.02;;;2.20;99.90;;;;;;5086452;28;20028;-64
2022/12/03 09:41:42;;;;;;;44.90;28.58;;;2.20;99.90;;;;;;5069117;28;20136;-64
2022/12/03 09:44:09;;;;;;;46.63;28.20;;;2.30;99.90;;;;;;5070715;28;20045;-64
2022/12/03 09:46:36;;;;;;;46.22;28.92;;;2.30;99.90;;;;;;5068911;28;20040;-64
2022/12/03 09:49:04;;;;;;;48.15;29.90;;;2.30;99.90;;;;;;5068122;28;20445;-64
2022/12/03 09:51:33;;;;;;;44.92;27.40;;;2.30;99.90;;;;;;5069549;28;20057;-64
2022/12/03 09:54:04;;;;;;;43.00;27.45;;;2.30;99.90;;;;;;5068961;28;20097;-64
2022/12/03 09:56:31;;;;;;;42.65;28.25;;;2.30;99.90;;;;;;5071729;28;20396;-64
2022/12/03 09:58:57;;;;;;;43.58;27.55;;;2.30;99.90;;;;;;5071591;28;20089;-64
2022/12/03 10:01:23;;;;;;;45.45;28.10;;;2.30;99.90;;;;;;5065277;28;20406;-64
2022/12/03 10:03:50;;;;;;;42.58;27.67;;;2.30;99.90;;;;;;5066024;28;20032;-64
2022/12/03 10:06:21;;;;;;;41.60;26.73;;;2.40;99.90;;;;;;5070682;28;20368;-64
2022/12/03 10:08:49;;;;;;;41.50;27.02;;;2.40;99.90;;;;;;5062636;28;20071;-64
2022/12/03 10:11:17;;;;;;;40.78;27.50;;;2.40;99.90;;;;;;5072308;28;20567;-64
2022/12/03 10:13:43;;;;;;;40.72;28.10;;;2.40;99.90;;;;;;5066942;28;20040;-64
2022/12/03 10:16:14;;;;;;;41.88;27.42;;;2.40;99.90;;;;;;5066140;28;20040;-64
2022/12/03 10:18:44;;;;;;;44.00;27.25;;;2.40;99.90;;;;;;5067950;28;20481;-64
2022/12/03 10:21:22;;;;;;;41.85;27.27;;;2.50;99.90;;;;;;5068667;28;20141;-64
2022/12/03 10:23:49;;;;;;;40.42;26.35;;;2.40;99.90;;;;;;5067157;28;20201;-64
2022/12/03 10:26:15;;;;;;;40.05;25.98;;;2.40;99.90;;;;;;5063727;28;20040;-64
2022/12/03 10:28:45;;;;;;;42.55;28.02;;;2.40;99.90;;;;;;5068783;28;20044;-64
2022/12/03 10:31:12;;;;;;;42.25;26.95;;;2.40;99.90;;;;;;5069644;28;20055;-64
2022/12/03 10:33:44;;;;;;;40.33;25.60;;;2.40;99.90;;;;;;5064570;28;20468;-64
2022/12/03 10:36:14;;;;;;;40.80;27.42;;;2.40;99.90;;;;;;5067133;28;20052;-64
2022/12/03 10:38:43;;;;;;;42.22;26.40;;;2.30;99.90;;;;;;5068671;28;20118;-64
2022/12/03 10:41:27;;;;;;;41.33;26.42;;;2.40;99.90;;;;;;5044284;28;20067;-64
2022/12/03 10:43:53;;;;;;;44.08;28.27;;;2.30;99.90;;;;;;5069242;28;20504;-64
2022/12/03 10:46:22;;;;;;;43.22;27.17;;;2.40;99.90;;;;;;5062117;28;20041;-64
2022/12/03 10:49:18;;;;;;;41.70;25.40;;;2.30;99.90;;;;;;5073345;28;20039;-65
2022/12/03 10:51:45;;;;;;;43.00;28.27;;;2.30;99.90;;;;;;5059506;28;20709;-64
2022/12/03 10:54:21;;;;;;;41.92;25.52;;;2.30;99.90;;;;;;5069304;28;20131;-64
2022/12/03 10:56:49;;;;;;;40.00;26.40;;;2.30;99.90;;;;;;5067038;28;20047;-64
2022/12/03 10:59:31;;;;;;;38.15;27.13;;;2.30;99.90;;;;;;5069156;28;20037;-65
2022/12/03 11:01:56;;;;;;;41.20;26.23;;;2.30;99.90;;;;;;5058575;28;20048;-65
2022/12/03 11:04:31;;;;;;;39.55;25.65;;;2.40;99.90;;;;;;5061453;28;20037;-64
2022/12/03 11:06:57;;;;;;;43.78;27.73;;;2.40;99.90;;;;;;5064509;28;20037;-64
2022/12/03 11:09:29;;;;;;;40.10;26.38;;;2.40;99.90;;;;;;5063438;28;20376;-64
2022/12/03 11:12:01;;;;;;;42.80;27.90;;;2.40;99.90;;;;;;5067963;28;20435;-64
2022/12/03 11:14:53;;;;;;;39.30;26.95;;;2.30;99.90;;;;;;5064960;28;20360;-64
2022/12/03 11:17:47;;;;;;;41.28;26.75;;;2.40;99.90;;;;;;5061528;28;20393;-64
2022/12/03 11:20:19;;;;;;;45.70;28.70;;;2.40;99.90;;;;;;5064982;28;20045;-64
2022/12/03 11:22:49;;;;;;;44.22;28.58;;;2.40;99.90;;;;;;5068798;28;20041;-64
2022/12/03 11:25:23;;;;;;;44.25;28.85;;;2.40;99.90;;;;;;5073663;28;20028;-65
2022/12/03 11:28:14;;;;;;;41.80;26.85;;;2.30;99.90;;;;;;5066607;28;20040;-65
2022/12/03 11:30:52;;;;;;;47.67;28.55;;;2.30;99.90;;;;;;5073271;28;20048;-64
2022/12/03 11:33:26;;;;;;;41.13;27.10;;;2.30;99.90;;;;;;5065475;28;20059;-65
2022/12/03 11:36:04;;;;;;;42.80;28.15;;;2.30;99.90;;;;;;5081248;28;20055;-64
2022/12/03 11:38:36;;;;;;;38.88;25.73;;;2.30;99.90;;;;;;5066599;28;20103;-64
2022/12/03 11:41:10;;;;;;;39.67;26.15;;;2.30;99.90;;;;;;5077274;28;20067;-64
2022/12/03 11:43:51;;;;;;;41.65;26.95;;;2.30;99.90;;;;;;5088977;28;20036;-64
2022/12/03 11:46:22;;;;;;;40.08;25.23;;;2.30;99.90;;;;;;5093547;28;20032;-64
2022/12/03 11:48:50;;;;;;;41.38;26.70;;;2.40;99.90;;;;;;5081260;28;20048;-64
2022/12/03 11:51:18;;;;;;;38.67;26.52;;;2.30;99.90;;;;;;5094344;28;20047;-65
2022/12/03 11:53:44;;;;;;;39.10;25.73;;;2.30;99.90;;;;;;5083384;28;20047;-65
2022/12/03 11:56:18;;;;;;;36.50;25.60;;;2.30;99.90;;;;;;5087461;28;20052;-64
2022/12/03 11:58:45;;;;;;;37.33;24.80;;;2.30;99.90;;;;;;5086759;28;20130;-65
2022/12/03 12:01:12;;;;;;;40.30;27.15;;;2.30;99.90;;;;;;5093761;28;20040;-65
2022/12/03 12:03:47;;;;;;;38.70;26.40;;;2.30;99.90;;;;;;5070983;28;20122;-64
2022/12/03 12:06:14;;;;;;;39.35;27.40;;;2.30;99.90;;;;;;5083540;28;20128;-65
2022/12/03 12:08:54;;;;;;;40.22;26.88;;;2.30;99.90;;;;;;5089322;28;20044;-64
2022/12/03 12:11:26;;;;;;;43.10;27.88;;;2.30;99.90;;;;;;5090792;28;20487;-64
2022/12/03 12:13:58;;;;;;;43.92;27.58;;;2.30;99.90;;;;;;5093106;28;20039;-65
2022/12/03 12:16:39;;;;;;;48.65;29.65;;;2.40;99.90;;;;;;5091290;28;20428;-64
2022/12/03 12:19:28;;;;;;;42.38;28.73;;;2.40;99.90;;;;;;5092338;28;20131;-64
2022/12/03 12:21:55;;;;;;;38.75;25.73;;;2.40;99.90;;;;;;5092298;28;20032;-65
2022/12/03 12:24:45;;;;;;;46.55;30.52;;;2.30;99.90;;;;;;5087460;28;20046;-65
2022/12/03 12:27:34;;;;;;;43.53;28.95;;;2.30;99.90;;;;;;5090583;28;20077;-65
2022/12/03 12:30:03;;;;;;;46.03;29.48;;;2.30;99.90;;;;;;5091896;28;20119;-64
2022/12/03 12:32:46;;;;;;;43.97;29.80;;;2.40;99.90;;;;;;5093934;28;20141;-65
2022/12/03 12:35:19;;;;;;;45.33;30.67;;;2.40;99.90;;;;;;5089419;28;20472;-65
2022/12/03 12:37:52;;;;;;;43.42;30.17;;;2.50;99.90;;;;;;5091297;28;20045;-64
2022/12/03 12:40:20;;;;;;;43.60;29.55;;;2.50;99.90;;;;;;5089846;28;20119;-64
2022/12/03 12:42:57;;;;;;;45.17;29.08;;;2.50;99.90;;;;;;5092627;28;20174;-65
2022/12/03 12:45:26;;;;;;;45.17;30.17;;;2.50;99.90;;;;;;5091236;28;20039;-65
2022/12/03 12:48:14;;;;;;;40.45;28.48;;;2.60;99.90;;;;;;5094583;28;20051;-64
2022/12/03 12:50:42;;;;;;;40.70;26.02;;;2.50;99.90;;;;;;5086672;28;20044;-65
2022/12/03 12:53:43;;;;;;;41.53;27.08;;;2.60;99.90;;;;;;5093040;28;20040;-64
2022/12/03 12:56:26;;;;;;;40.47;26.27;;;2.50;99.90;;;;;;5008460;28;20037;-65
2022/12/03 12:58:53;;;;;;;41.85;26.67;;;2.50;99.90;;;;;;5087498;28;20681;-65
2022/12/03 13:01:29;;;;;;;36.20;24.92;;;2.50;99.90;;;;;;5091789;28;20078;-64
2022/12/03 13:03:55;;;;;;;38.17;26.52;;;2.50;99.90;;;;;;5095560;28;20379;-64
2022/12/03 13:06:25;;;;;;;39.25;26.30;;;2.40;99.90;;;;;;5091752;28;20049;-64